Time;durP1;ratioP1;P1;durP2;ratioP2;P2;SDS_P1;SDS_P2;PMS_P1;PMS_P2;Temp;Humidity;BMP_temperature;BMP_pressure;BME280_temperature;BME280_humidity;BME280_pressure;Samples;Min_cycle;Max_cycle;Signal;HPM_P1;HPM_P2
2022/08/29 00:00:20;;;;;;;7.80;2.38;;;;;;;15.49;83.35;102188.47;5034205;28;20076;-75
2022/08/29 00:02:48;;;;;;;4.60;2.08;;;;;;;15.35;83.69;102183.09;5033244;28;20477;-74
2022/08/29 00:05:13;;;;;;;6.38;2.30;;;;;;;15.32;84.27;102193.88;5032809;28;20025;-75
2022/08/29 00:07:39;;;;;;;3.40;1.90;;;;;;;15.43;83.78;102187.41;5035475;28;20032;-76
2022/08/29 00:10:05;;;;;;;7.57;2.10;;;;;;;15.51;83.08;102187.28;5036451;28;20045;-75
2022/08/29 00:12:31;;;;;;;5.15;2.03;;;;;;;15.54;82.85;102179.09;5036739;28;20550;-75
2022/08/29 00:14:56;;;;;;;4.60;2.15;;;;;;;15.53;83.04;102180.06;5036879;28;20061;-75
2022/08/29 00:17:21;;;;;;;7.88;2.40;;;;;;;15.56;82.85;102189.31;5036495;28;20036;-75
2022/08/29 00:19:47;;;;;;;5.43;2.05;;;;;;;15.54;82.94;102184.31;5036281;28;20029;-75
2022/08/29 00:22:12;;;;;;;5.95;1.90;;;;;;;15.71;82.37;102182.28;5034949;28;20079;-75
2022/08/29 00:24:37;;;;;;;10.55;2.00;;;;;;;15.74;81.76;102178.50;5036266;28;20025;-75
2022/08/29 00:27:03;;;;;;;8.55;2.08;;;;;;;15.84;81.65;102172.97;5034829;28;20031;-75
2022/08/29 00:29:28;;;;;;;6.22;2.00;;;;;;;15.91;81.19;102172.03;5036059;28;20049;-75
2022/08/29 00:31:53;;;;;;;4.40;2.25;;;;;;;15.92;81.08;102171.03;5036082;28;20436;-76
2022/08/29 00:34:19;;;;;;;6.70;1.95;;;;;;;15.91;80.78;102171.22;5034721;28;20051;-76
2022/08/29 00:36:45;;;;;;;6.35;2.00;;;;;;;15.87;80.99;102176.00;5034752;28;20436;-75
2022/08/29 00:39:10;;;;;;;9.02;2.08;;;;;;;15.74;81.58;102181.91;5036083;28;20465;-75
2022/08/29 00:41:35;;;;;;;6.78;1.95;;;;;;;15.78;81.70;102184.94;5035973;28;20504;-75
2022/08/29 00:44:02;;;;;;;5.45;1.90;;;;;;;15.77;81.22;102185.97;5035898;28;20056;-75
2022/08/29 00:46:37;;;;;;;6.35;2.10;;;;;;;15.74;81.79;102187.13;5035708;28;20020;-75
2022/08/29 00:49:12;;;;;;;6.22;1.90;;;;;;;15.84;81.36;102193.81;5035866;28;20031;-75
2022/08/29 00:51:39;;;;;;;3.53;1.98;;;;;;;15.84;80.96;102192.03;5034529;28;20391;-75
2022/08/29 00:54:10;;;;;;;6.22;2.10;;;;;;;15.86;81.50;102197.88;5034223;28;20068;-75
2022/08/29 00:56:38;;;;;;;6.63;1.88;;;;;;;15.79;81.38;102197.81;5034435;28;20079;-75
2022/08/29 00:59:12;;;;;;;7.47;2.20;;;;;;;15.68;81.93;102193.09;5035539;28;20068;-74
2022/08/29 01:01:38;;;;;;;4.72;2.10;;;;;;;15.69;81.69;102186.88;5034338;28;20370;-75
2022/08/29 01:04:05;;;;;;;4.55;2.17;;;;;;;15.80;81.45;102193.41;5034229;28;20090;-74
2022/08/29 01:06:31;;;;;;;5.72;1.90;;;;;;;15.90;80.98;102200.91;5035471;28;20032;-75
2022/08/29 01:08:57;;;;;;;5.47;2.00;;;;;;;15.73;81.30;102195.94;5035483;28;20036;-76
2022/08/29 01:14:08;;;;;;;4.75;2.00;;;;;;;15.66;81.83;102197.66;5035576;28;20451;-75
2022/08/29 01:16:35;;;;;;;8.00;1.90;;;;;;;15.62;81.62;102200.78;5033848;28;20029;-75
2022/08/29 01:19:23;;;;;;;5.90;2.20;;;;;;;15.59;81.75;102188.94;5033535;28;20033;-75
2022/08/29 01:22:21;;;;;;;4.47;2.00;;;;;;;15.36;82.53;102199.53;5035101;28;20033;-74
2022/08/29 01:24:49;;;;;;;4.32;1.90;;;;;;;15.25;83.57;102203.44;5026945;28;20416;-74
2022/08/29 01:27:18;;;;;;;4.53;2.22;;;;;;;15.16;83.91;102196.69;5035177;28;20022;-75
2022/08/29 01:29:44;;;;;;;5.95;1.90;;;;;;;15.05;84.38;102202.41;5034917;28;20476;-75
2022/08/29 01:32:10;;;;;;;5.32;2.15;;;;;;;14.91;84.68;102195.41;5033703;28;20030;-77
2022/08/29 01:34:35;;;;;;;4.28;2.00;;;;;;;15.02;84.60;102197.56;5033650;28;20036;-75
2022/08/29 01:37:04;;;;;;;3.70;1.98;;;;;;;15.04;84.33;102205.97;5034920;28;20014;-75
2022/08/29 01:39:33;;;;;;;4.25;2.10;;;;;;;14.90;84.84;102199.78;5034921;28;20041;-75
2022/08/29 01:42:04;;;;;;;4.32;1.83;;;;;;;14.96;85.02;102195.66;5017023;28;20112;-74
2022/08/29 01:44:30;;;;;;;4.03;1.95;;;;;;;14.85;85.09;102194.34;5034736;28;20048;-75
2022/08/29 01:46:58;;;;;;;6.85;2.38;;;;;;;14.86;85.01;102201.16;5034897;28;20033;-75
2022/08/29 01:49:24;;;;;;;4.65;2.10;;;;;;;14.81;84.97;102193.06;5033535;28;20032;-75
2022/08/29 01:51:50;;;;;;;5.10;2.10;;;;;;;14.59;84.82;102211.19;5034502;28;20029;-75
2022/08/29 01:54:16;;;;;;;5.57;2.20;;;;;;;14.52;86.10;102197.28;5034342;28;20080;-75
2022/08/29 01:56:45;;;;;;;4.95;2.00;;;;;;;14.54;86.49;102197.13;5034512;28;20108;-75
2022/08/29 01:59:15;;;;;;;4.82;2.03;;;;;;;14.36;85.78;102174.84;5033259;28;20075;-75
2022/08/29 02:01:52;;;;;;;3.72;1.67;;;;;;;14.45;86.63;102191.16;5033173;28;20029;-74
2022/08/29 02:04:18;;;;;;;5.13;2.20;;;;;;;14.34;87.14;102192.38;5034427;28;20021;-76
2022/08/29 02:06:44;;;;;;;4.97;2.05;;;;;;;14.52;87.11;102199.06;5033049;28;20472;-76
2022/08/29 02:09:10;;;;;;;5.80;2.20;;;;;;;14.52;86.20;102193.88;5034178;28;20021;-74
2022/08/29 02:11:35;;;;;;;5.45;2.42;;;;;;;14.73;86.29;102193.16;5032924;28;20416;-74
2022/08/29 02:14:02;;;;;;;6.68;2.30;;;;;;;14.76;85.57;102195.41;5034325;28;20384;-75
2022/08/29 02:16:28;;;;;;;6.05;1.92;;;;;;;14.78;85.15;102188.22;5034145;28;20559;-75
2022/08/29 02:18:54;;;;;;;4.80;2.10;;;;;;;14.74;84.56;102169.56;5032961;28;20131;-75
2022/08/29 02:21:22;;;;;;;5.68;2.05;;;;;;;14.82;84.54;102192.09;5033946;28;20111;-76
2022/08/29 02:23:49;;;;;;;5.03;2.20;;;;;;;14.86;84.88;102191.53;5032785;28;20028;-75
2022/08/29 02:26:15;;;;;;;4.25;2.03;;;;;;;14.79;85.30;102184.66;5033926;28;20029;-76
2022/08/29 02:28:40;;;;;;;4.72;1.90;;;;;;;14.83;85.04;102189.31;5033442;28;20024;-76
2022/08/29 02:31:07;;;;;;;4.40;2.10;;;;;;;14.82;85.24;102192.91;5033768;28;20021;-75
2022/08/29 02:33:34;;;;;;;7.20;1.92;;;;;;;14.94;85.30;102195.06;5033853;28;20030;-75
2022/08/29 02:35:59;;;;;;;4.18;2.20;;;;;;;14.91;85.16;102196.22;5033593;28;20112;-75
2022/08/29 02:38:25;;;;;;;7.32;2.25;;;;;;;14.95;84.82;102184.44;5033769;28;20124;-75
2022/08/29 02:40:51;;;;;;;4.10;2.00;;;;;;;14.89;84.86;102193.78;5032460;28;20028;-76
2022/08/29 02:43:18;;;;;;;6.03;2.00;;;;;;;15.04;84.93;102195.56;5033698;28;20029;-75
2022/08/29 02:45:45;;;;;;;3.55;1.95;;;;;;;15.06;84.32;102191.78;5033537;28;20387;-75
2022/08/29 02:48:12;;;;;;;5.22;2.00;;;;;;;15.13;83.94;102199.66;5033661;28;20500;-75
2022/08/29 02:50:42;;;;;;;3.95;2.00;;;;;;;15.14;83.33;102193.50;5032296;28;20385;-77
2022/08/29 02:53:08;;;;;;;5.43;2.00;;;;;;;15.10;82.94;102198.25;5032061;28;20138;-75
2022/08/29 02:55:33;;;;;;;5.45;2.17;;;;;;;15.10;83.48;102202.63;5033442;28;20072;-75
2022/08/29 02:57:59;;;;;;;5.80;1.95;;;;;;;15.17;82.80;102200.13;5032160;28;20029;-76
2022/08/29 03:00:25;;;;;;;6.35;2.00;;;;;;;15.25;82.35;102200.84;5032089;28;20107;-75
2022/08/29 03:02:54;;;;;;;4.95;2.00;;;;;;;15.21;82.23;102207.38;5032119;28;20026;-75
2022/08/29 03:05:23;;;;;;;6.35;2.10;;;;;;;15.30;81.47;102203.66;5033264;28;20029;-75
2022/08/29 03:07:51;;;;;;;5.43;2.05;;;;;;;15.48;80.51;102207.69;5033304;28;20029;-76
2022/08/29 03:10:16;;;;;;;7.05;1.98;;;;;;;15.65;79.60;102197.81;5033291;28;20535;-76
2022/08/29 03:12:41;;;;;;;8.55;2.08;;;;;;;15.65;79.29;102201.25;5032035;28;20029;-75
2022/08/29 03:15:07;;;;;;;6.88;2.22;;;;;;;15.44;79.84;102201.22;5033379;28;20025;-75
2022/08/29 03:17:34;;;;;;;6.45;2.03;;;;;;;15.33;79.94;102197.28;5033067;28;20128;-76
2022/08/29 03:20:00;;;;;;;6.43;2.10;;;;;;;15.42;79.67;102198.00;5015513;28;20492;-75
2022/08/29 03:22:26;;;;;;;6.30;1.77;;;;;;;15.47;79.84;102204.25;5033102;28;20032;-75
2022/08/29 03:24:52;;;;;;;5.93;2.13;;;;;;;15.49;80.03;102198.88;5032007;28;20033;-75
2022/08/29 03:27:18;;;;;;;5.88;2.20;;;;;;;15.57;79.69;102199.56;5033263;28;20059;-74
2022/08/29 03:29:44;;;;;;;4.60;1.90;;;;;;;15.53;79.83;102205.31;5033178;28;20029;-75
2022/08/29 03:32:09;;;;;;;5.30;2.40;;;;;;;15.51;79.99;102192.50;5032993;28;20021;-74
2022/08/29 03:34:34;;;;;;;6.30;2.03;;;;;;;15.55;79.85;102183.31;5031852;28;20026;-76
2022/08/29 03:37:00;;;;;;;7.72;2.10;;;;;;;15.70;79.32;102191.09;5032993;28;20026;-75
2022/08/29 03:39:26;;;;;;;5.15;2.10;;;;;;;15.70;79.20;102185.88;5033241;28;20025;-76
2022/08/29 03:41:51;;;;;;;7.60;2.53;;;;;;;15.68;78.81;102181.84;5036336;28;20032;-76
2022/08/29 03:44:17;;;;;;;8.00;2.15;;;;;;;15.58;79.37;102177.72;5037178;28;20045;-75
2022/08/29 03:46:42;;;;;;;4.40;2.10;;;;;;;15.60;79.71;102174.94;5037026;28;20480;-76
2022/08/29 03:49:08;;;;;;;3.58;1.95;;;;;;;15.71;79.42;102181.50;5037035;28;20108;-75
2022/08/29 03:51:35;;;;;;;4.90;1.83;;;;;;;15.71;79.32;102171.88;5036940;28;20080;-76
2022/08/29 03:54:00;;;;;;;6.80;2.33;;;;;;;15.74;79.19;102173.31;5035363;28;20054;-75
2022/08/29 03:56:27;;;;;;;4.88;2.20;;;;;;;15.72;78.62;102176.06;5037227;28;20025;-75
2022/08/29 03:58:53;;;;;;;5.72;2.08;;;;;;;15.73;78.76;102175.06;5036827;28;20485;-75
2022/08/29 04:01:25;;;;;;;6.15;2.20;;;;;;;15.51;78.57;102144.81;5036119;28;20084;-76
2022/08/29 04:03:51;;;;;;;4.72;2.17;;;;;;;15.74;78.58;102162.88;5036988;28;20036;-76
2022/08/29 04:06:17;;;;;;;5.65;2.00;;;;;;;15.78;77.57;102177.13;5036884;28;20029;-76
2022/08/29 04:08:46;;;;;;;5.03;2.10;;;;;;;15.80;77.87;102175.16;5035434;28;20095;-75
2022/08/29 04:11:13;;;;;;;3.97;2.22;;;;;;;15.71;78.63;102173.69;5037156;28;20108;-76
2022/08/29 04:13:39;;;;;;;4.38;2.08;;;;;;;15.64;78.18;102170.16;5035676;28;20108;-75
2022/08/29 04:16:13;;;;;;;4.60;2.17;;;;;;;15.88;77.04;102166.38;5036728;28;20072;-76
2022/08/29 04:18:39;;;;;;;7.10;2.42;;;;;;;15.96;77.45;102174.88;5043776;28;20025;-75
2022/08/29 04:21:06;;;;;;;6.53;2.70;;;;;;;16.00;76.12;102159.69;5047234;28;20104;-77
2022/08/29 04:23:33;;;;;;;8.63;2.50;;;;;;;16.10;76.28;102161.94;5046970;28;20044;-77
2022/08/29 04:25:58;;;;;;;5.68;2.30;;;;;;;15.90;76.51;102161.78;5048993;28;20033;-74
2022/08/29 04:28:24;;;;;;;7.70;2.38;;;;;;;15.86;76.17;102163.97;5048824;28;20017;-74
2022/08/29 04:30:51;;;;;;;7.18;2.30;;;;;;;15.89;75.81;102163.59;5048652;28;20026;-75
2022/08/29 04:33:17;;;;;;;5.85;2.40;;;;;;;16.01;75.97;102166.50;5050745;28;20025;-74
2022/08/29 04:35:42;;;;;;;6.60;2.40;;;;;;;15.90;77.03;102154.78;5047168;28;20033;-75
2022/08/29 04:38:08;;;;;;;8.55;2.83;;;;;;;15.75;77.63;102162.69;5048160;28;20028;-75
2022/08/29 04:40:35;;;;;;;6.88;2.50;;;;;;;15.83;78.20;102176.59;5046505;28;20436;-75
2022/08/29 04:43:00;;;;;;;4.85;2.40;;;;;;;15.90;77.32;102180.84;5052465;28;20048;-77
2022/08/29 04:45:26;;;;;;;5.90;2.33;;;;;;;15.90;77.27;102167.00;5053473;28;20025;-77
2022/08/29 04:47:51;;;;;;;5.32;2.40;;;;;;;15.89;76.96;102160.19;5053765;28;20037;-80
2022/08/29 04:50:20;;;;;;;8.65;2.35;;;;;;;16.03;77.29;102177.56;5054826;28;20028;-77
2022/08/29 04:52:46;;;;;;;5.97;2.53;;;;;;;15.92;77.66;102191.09;5052857;28;20013;-80
2022/08/29 04:55:12;;;;;;;6.57;2.40;;;;;;;15.89;77.31;102181.84;5054931;28;20038;-79
2022/08/29 04:57:38;;;;;;;6.22;2.40;;;;;;;15.90;78.23;102185.25;5054017;28;20120;-78
2022/08/29 05:00:11;;;;;;;5.80;2.40;;;;;;;15.93;77.79;102184.88;5056289;28;20026;-79
2022/08/29 05:02:36;;;;;;;8.85;2.50;;;;;;;15.93;77.89;102182.28;5033891;28;20032;-76
2022/08/29 05:05:02;;;;;;;7.53;2.80;;;;;;;15.89;78.10;102175.84;5042251;28;20029;-76
2022/08/29 05:07:28;;;;;;;7.95;2.72;;;;;;;15.80;78.21;102172.53;5047693;28;20055;-80
2022/08/29 05:09:59;;;;;;;9.82;2.80;;;;;;;15.91;78.14;102171.22;5049317;28;20021;-76
2022/08/29 05:12:28;;;;;;;9.95;2.60;;;;;;;15.90;77.59;102170.41;5042543;28;20018;-77
2022/08/29 05:14:53;;;;;;;8.02;2.60;;;;;;;15.85;78.05;102164.94;5047322;28;20025;-77
2022/08/29 05:17:19;;;;;;;6.75;2.70;;;;;;;15.96;77.79;102180.09;5039274;28;20029;-76
2022/08/29 05:19:44;;;;;;;5.35;2.40;;;;;;;16.02;77.35;102187.19;5036845;28;20021;-77
2022/08/29 05:22:12;;;;;;;6.78;2.60;;;;;;;15.98;77.90;102192.94;5037528;28;20021;-77
2022/08/29 05:24:37;;;;;;;7.82;2.70;;;;;;;15.86;78.56;102177.00;5037364;28;20022;-77
2022/08/29 05:27:08;;;;;;;7.15;2.75;;;;;;;16.03;78.08;102193.19;5036505;28;20083;-76
2022/08/29 05:29:38;;;;;;;6.43;2.65;;;;;;;15.98;78.47;102196.34;5036367;28;20022;-77
2022/08/29 05:32:04;;;;;;;8.10;2.80;;;;;;;16.04;78.21;102192.19;5035770;28;20469;-76
2022/08/29 05:34:29;;;;;;;7.88;2.60;;;;;;;16.10;77.93;102196.66;5035908;28;20017;-76
2022/08/29 05:36:55;;;;;;;13.52;2.90;;;;;;;16.12;78.35;102199.88;5035460;28;20038;-77
2022/08/29 05:39:20;;;;;;;10.93;3.25;;;;;;;16.14;76.35;102197.06;5034067;28;20080;-76
2022/08/29 05:41:45;;;;;;;7.20;3.25;;;;;;;16.19;75.80;102197.31;5035063;28;20032;-76
2022/08/29 05:44:11;;;;;;;6.22;2.80;;;;;;;16.30;74.77;102193.38;5033743;28;20026;-76
2022/08/29 05:46:36;;;;;;;9.40;2.90;;;;;;;16.38;74.62;102196.66;5033812;28;20418;-76
2022/08/29 05:49:01;;;;;;;8.73;3.05;;;;;;;16.35;73.74;102188.41;5033476;28;20025;-76
2022/08/29 05:51:28;;;;;;;11.52;3.38;;;;;;;16.55;71.65;102198.97;5035074;28;20028;-76
2022/08/29 05:53:53;;;;;;;8.70;3.15;;;;;;;16.72;71.98;102204.69;5033064;28;20053;-75
2022/08/29 05:56:21;;;;;;;10.05;2.88;;;;;;;16.94;71.36;102208.00;5034554;28;20117;-77
2022/08/29 05:58:47;;;;;;;9.50;3.10;;;;;;;16.97;71.05;102208.44;5033480;28;20481;-76
2022/08/29 06:01:24;;;;;;;14.10;3.33;;;;;;;17.02;71.63;102215.69;5034503;28;20097;-78
2022/08/29 06:03:50;;;;;;;10.80;3.30;;;;;;;17.04;70.46;102224.16;5032335;28;20553;-76
2022/08/29 06:06:18;;;;;;;10.13;3.40;;;;;;;17.10;68.55;102218.13;5034899;28;20044;-77
2022/08/29 06:08:44;;;;;;;10.00;3.15;;;;;;;17.20;68.58;102221.19;5033207;28;20033;-76
2022/08/29 06:11:17;;;;;;;10.45;3.17;;;;;;;17.16;70.17;102219.97;5034444;28;20032;-77
2022/08/29 06:13:43;;;;;;;12.15;3.55;;;;;;;17.05;69.15;102210.88;5033135;28;20040;-76
2022/08/29 06:16:18;;;;;;;13.35;3.80;;;;;;;17.15;68.65;102218.38;5033747;28;20498;-75
2022/08/29 06:18:44;;;;;;;10.90;3.28;;;;;;;17.19;69.34;102218.78;5033871;28;20037;-75
2022/08/29 06:21:10;;;;;;;12.25;3.20;;;;;;;17.03;69.20;102228.56;5036035;28;20022;-76
2022/08/29 06:23:36;;;;;;;13.73;3.80;;;;;;;17.06;69.96;102222.94;5032963;28;20032;-76
2022/08/29 06:26:02;;;;;;;8.20;3.22;;;;;;;17.11;71.43;102225.75;5032661;28;20500;-75
2022/08/29 06:28:30;;;;;;;8.73;3.38;;;;;;;17.12;68.93;102222.16;5034042;28;20097;-76
2022/08/29 06:30:56;;;;;;;9.18;3.72;;;;;;;17.23;67.58;102223.41;5032665;28;20033;-76
2022/08/29 06:33:22;;;;;;;9.80;3.40;;;;;;;17.16;66.45;102227.00;5033968;28;20033;-76
2022/08/29 06:35:47;;;;;;;8.40;3.10;;;;;;;17.16;66.68;102234.84;5033831;28;20025;-74
2022/08/29 06:38:12;;;;;;;7.03;3.30;;;;;;;17.22;67.51;102227.03;5032523;28;20037;-75
2022/08/29 06:40:37;;;;;;;6.78;3.30;;;;;;;17.22;66.78;102226.22;5032501;28;20508;-76
2022/08/29 06:43:03;;;;;;;9.50;3.15;;;;;;;17.31;67.86;102225.03;5033723;28;20101;-76
2022/08/29 06:45:28;;;;;;;9.50;3.30;;;;;;;17.43;66.72;102240.94;5032490;28;20439;-76
2022/08/29 06:47:53;;;;;;;13.00;3.75;;;;;;;17.52;65.77;102242.38;5033539;28;20104;-75
2022/08/29 06:50:19;;;;;;;7.72;2.92;;;;;;;17.54;64.82;102235.94;5034346;28;20059;-76
2022/08/29 06:52:44;;;;;;;11.93;3.53;;;;;;;17.75;65.29;102240.22;5033551;28;20021;-75
2022/08/29 06:55:12;;;;;;;7.32;3.10;;;;;;;17.84;63.99;102229.59;5033493;28;20029;-75
2022/08/29 06:57:44;;;;;;;7.10;3.22;;;;;;;18.01;62.84;102223.78;5032232;28;20082;-76
2022/08/29 07:00:12;;;;;;;6.57;2.97;;;;;;;18.17;63.51;102234.84;5032301;28;20056;-75
2022/08/29 07:02:38;;;;;;;7.82;3.28;;;;;;;18.14;63.11;102232.63;5032308;28;20028;-75
2022/08/29 07:05:05;;;;;;;8.30;3.22;;;;;;;17.92;63.05;102230.19;5033445;28;20025;-76
2022/08/29 07:07:30;;;;;;;11.50;3.58;;;;;;;17.84;63.92;102238.25;5033551;28;20025;-76
2022/08/29 07:09:55;;;;;;;8.07;3.45;;;;;;;17.95;63.09;102232.44;5033259;28;20018;-74
2022/08/29 07:12:22;;;;;;;8.10;3.10;;;;;;;17.94;62.79;102238.66;5033286;28;20044;-74
2022/08/29 07:14:47;;;;;;;6.75;3.30;;;;;;;18.14;63.46;102238.66;5032853;28;20035;-74
2022/08/29 07:17:13;;;;;;;6.75;3.42;;;;;;;18.20;63.50;102227.38;5034887;28;20444;-76
2022/08/29 07:19:38;;;;;;;10.98;3.33;;;;;;;18.08;63.83;102230.81;5033391;28;20108;-77
2022/08/29 07:22:03;;;;;;;6.70;3.33;;;;;;;18.16;63.15;102243.72;5031922;28;20025;-75
2022/08/29 07:24:29;;;;;;;7.78;3.00;;;;;;;18.23;63.74;102237.44;5033390;28;20025;-76
2022/08/29 07:26:54;;;;;;;9.68;3.42;;;;;;;18.18;64.49;102236.44;5033185;28;20021;-76
2022/08/29 07:29:20;;;;;;;9.00;3.13;;;;;;;18.24;63.58;102239.06;5031871;28;20112;-75
2022/08/29 07:31:46;;;;;;;9.65;3.03;;;;;;;18.25;63.58;102239.88;5033362;28;20033;-75
2022/08/29 07:34:12;;;;;;;7.03;3.30;;;;;;;18.22;63.03;102237.66;5033225;28;20051;-77
2022/08/29 07:36:38;;;;;;;8.60;3.30;;;;;;;18.33;64.12;102244.09;5032989;28;20025;-76
2022/08/29 07:39:07;;;;;;;9.40;3.13;;;;;;;18.51;62.81;102233.81;5033178;28;20052;-76
2022/08/29 07:41:32;;;;;;;12.15;3.30;;;;;;;18.84;61.31;102240.78;5033376;28;20029;-75
2022/08/29 07:43:58;;;;;;;8.00;3.00;;;;;;;18.92;61.41;102243.97;5033324;28;20026;-74
2022/08/29 07:46:24;;;;;;;7.88;3.20;;;;;;;19.27;60.59;102232.34;5032992;28;20469;-75
2022/08/29 07:48:51;;;;;;;8.27;3.25;;;;;;;19.23;60.34;102213.63;5033045;28;20053;-76
2022/08/29 07:51:19;;;;;;;10.45;3.10;;;;;;;19.50;61.17;102237.06;5032937;28;20456;-77
2022/08/29 07:53:45;;;;;;;7.88;3.08;;;;;;;20.15;58.31;102242.88;5032675;28;20128;-76
2022/08/29 07:56:15;;;;;;;8.90;3.17;;;;;;;20.48;56.76;102241.75;5031514;28;20038;-76
2022/08/29 07:58:40;;;;;;;10.60;2.90;;;;;;;21.16;56.12;102239.00;5032888;28;20045;-76
2022/08/29 08:01:06;;;;;;;6.78;2.78;;;;;;;21.58;54.14;102239.06;5034560;28;20420;-76
2022/08/29 08:03:33;;;;;;;11.10;2.92;;;;;;;22.38;52.25;102232.50;5033161;28;20458;-76
2022/08/29 08:05:58;;;;;;;5.75;2.63;;;;;;;21.51;55.03;102224.41;5031787;28;20030;-77
2022/08/29 08:08:24;;;;;;;7.65;2.70;;;;;;;23.25;50.65;102234.25;5033198;28;20024;-76
2022/08/29 08:10:50;;;;;;;7.05;2.80;;;;;;;25.48;45.00;102225.34;5032277;28;20021;-76
2022/08/29 08:13:16;;;;;;;9.43;2.60;;;;;;;26.88;40.75;102224.81;5032813;28;20448;-78
2022/08/29 08:15:41;;;;;;;7.60;2.42;;;;;;;25.52;42.75;102229.06;5032800;28;20075;-76
2022/08/29 08:18:06;;;;;;;7.15;2.47;;;;;;;26.01;41.65;102229.72;5033466;28;20440;-76
2022/08/29 08:20:33;;;;;;;7.63;3.08;;;;;;;27.31;39.32;102216.69;5031621;28;20029;-76
2022/08/29 08:22:58;;;;;;;6.10;2.50;;;;;;;27.61;37.99;102224.63;5032760;28;20362;-76
2022/08/29 08:25:24;;;;;;;8.68;3.17;;;;;;;27.11;39.46;102220.88;5031397;28;20033;-77
2022/08/29 08:27:50;;;;;;;7.32;2.72;;;;;;;24.51;44.27;102215.34;5032882;28;20495;-76
2022/08/29 08:30:15;;;;;;;7.50;2.85;;;;;;;24.26;44.98;102217.63;5036260;28;20025;-77
2022/08/29 08:32:41;;;;;;;8.93;2.50;;;;;;;23.62;47.36;102218.78;5036487;28;20040;-77
2022/08/29 08:35:07;;;;;;;9.60;2.90;;;;;;;23.38;47.57;102215.47;5036313;28;20029;-77
2022/08/29 08:37:32;;;;;;;6.32;2.92;;;;;;;23.27;49.19;102216.34;5034916;28;20068;-76
2022/08/29 08:39:57;;;;;;;5.80;2.63;;;;;;;22.91;47.72;102215.66;5036064;28;20033;-77
2022/08/29 08:42:38;;;;;;;8.45;2.75;;;;;;;21.28;49.65;102218.00;5035349;28;20448;-77
2022/08/29 08:45:04;;;;;;;11.02;2.90;;;;;;;21.68;50.68;102221.91;5035906;28;20029;-76
2022/08/29 08:47:38;;;;;;;9.63;3.05;;;;;;;21.97;50.93;102207.88;5037350;28;20044;-75
2022/08/29 08:50:13;;;;;;;10.25;2.90;;;;;;;21.93;50.91;102222.53;5037009;28;20484;-76
2022/08/29 08:52:46;;;;;;;7.55;2.70;;;;;;;22.11;50.17;102224.25;5036030;28;20064;-76
2022/08/29 08:55:40;;;;;;;10.27;3.13;;;;;;;22.28;49.84;102235.72;5034493;28;20481;-77
2022/08/29 08:58:14;;;;;;;5.63;2.70;;;;;;;22.01;50.64;102227.47;5036056;28;20021;-76
2022/08/29 09:00:45;;;;;;;10.35;3.00;;;;;;;22.13;50.94;102239.81;5034388;28;20025;-76
2022/08/29 09:03:32;;;;;;;8.60;2.75;;;;;;;21.74;51.34;102240.22;5034389;28;20079;-76
2022/08/29 09:06:14;;;;;;;9.88;3.08;;;;;;;21.23;53.18;102241.53;5034392;28;20028;-76
2022/08/29 09:09:17;;;;;;;8.40;3.00;;;;;;;21.46;53.43;102240.03;5034340;28;20025;-76
2022/08/29 09:12:14;;;;;;;7.78;3.00;;;;;;;20.91;54.17;102222.53;5036598;28;20036;-76
2022/08/29 09:15:27;;;;;;;7.75;2.70;;;;;;;20.79;54.17;102247.94;5039030;28;20061;-76
2022/08/29 09:18:00;;;;;;;9.65;3.35;;;;;;;20.41;54.94;102248.91;5017640;28;20041;-77
2022/08/29 09:20:29;;;;;;;7.68;3.15;;;;;;;20.31;56.56;102262.50;5035418;28;20021;-77
2022/08/29 09:23:09;;;;;;;7.03;2.90;;;;;;;20.03;56.77;102253.28;5035427;28;20393;-77
2022/08/29 09:25:35;;;;;;;6.78;2.78;;;;;;;20.89;55.29;102249.03;5033752;28;20052;-76
2022/08/29 09:28:04;;;;;;;7.78;3.08;;;;;;;21.25;54.28;102250.00;5017754;28;20033;-77
2022/08/29 09:30:35;;;;;;;7.03;2.67;;;;;;;21.39;53.50;102258.53;5035129;28;20021;-77
2022/08/29 09:33:07;;;;;;;8.27;2.80;;;;;;;21.13;53.97;102244.69;5033495;28;20029;-77
2022/08/29 09:35:47;;;;;;;6.75;2.70;;;;;;;21.50;52.87;102252.53;5035097;28;20030;-77
2022/08/29 09:38:15;;;;;;;9.77;2.65;;;;;;;21.68;53.57;102250.84;5034830;28;20388;-76
2022/08/29 09:40:55;;;;;;;12.40;3.22;;;;;;;21.51;53.57;102255.97;5033799;28;20384;-77
2022/08/29 09:43:20;;;;;;;6.40;2.70;;;;;;;21.03;54.65;102260.19;5033644;28;20022;-76
2022/08/29 09:46:24;;;;;;;7.93;2.70;;;;;;;21.53;52.49;102265.22;5033609;28;20021;-77
2022/08/29 09:49:01;;;;;;;8.20;2.90;;;;;;;21.08;53.81;102255.06;4957802;28;20274;-76
2022/08/29 09:51:36;;;;;;;8.35;3.22;;;;;;;21.36;54.27;102240.56;5025140;28;20033;-76
2022/08/29 09:54:25;;;;;;;7.45;2.97;;;;;;;21.73;53.03;102243.09;5034474;28;20116;-77
2022/08/29 09:56:57;;;;;;;10.82;3.30;;;;;;;20.91;54.22;102243.56;5033186;28;20499;-76
2022/08/29 09:59:25;;;;;;;6.65;2.67;;;;;;;20.68;54.71;102241.59;5032705;28;20040;-75
2022/08/29 10:02:30;;;;;;;9.20;2.70;;;;;;;20.63;55.02;102241.44;5032360;28;20060;-76
2022/08/29 10:05:04;;;;;;;11.85;2.95;;;;;;;20.77;54.44;102245.53;5022664;28;20029;-76
2022/08/29 10:07:44;;;;;;;9.27;2.90;;;;;;;20.52;56.20;102250.81;5032374;28;20396;-76
2022/08/29 10:10:22;;;;;;;7.40;2.53;;;;;;;20.88;55.28;102246.63;5033082;28;20040;-76
2022/08/29 10:13:30;;;;;;;17.20;3.10;;;;;;;20.61;55.78;102249.53;5033985;28;20021;-76
2022/08/29 10:16:05;;;;;;;7.75;2.95;;;;;;;20.51;55.73;102246.56;5003385;28;20038;-75
2022/08/29 10:18:43;;;;;;;10.52;2.78;;;;;;;20.42;55.99;102245.25;5043604;28;20025;-76
2022/08/29 10:21:24;;;;;;;7.55;2.83;;;;;;;20.08;57.02;102244.75;5041438;28;20033;-77
2022/08/29 10:24:03;;;;;;;8.65;2.80;;;;;;;20.05;57.02;102251.25;5038089;28;20021;-74
2022/08/29 10:26:50;;;;;;;8.45;2.70;;;;;;;20.23;56.77;102239.19;5034081;28;20076;-74
2022/08/29 10:29:21;;;;;;;6.43;2.53;;;;;;;21.09;55.26;102242.72;5034020;28;20550;-78
2022/08/29 10:32:13;;;;;;;6.35;2.60;;;;;;;21.26;53.90;102243.75;5033956;28;20057;-76
2022/08/29 10:35:16;;;;;;;7.75;2.55;;;;;;;21.70;52.88;102246.97;5032705;28;20080;-76
2022/08/29 10:37:59;;;;;;;8.35;2.40;;;;;;;21.80;52.42;102247.22;5033575;28;20029;-75
2022/08/29 10:40:41;;;;;;;7.38;2.42;;;;;;;22.07;50.68;102236.28;5034055;28;20070;-75
2022/08/29 10:43:25;;;;;;;6.47;2.47;;;;;;;21.62;51.98;102236.78;5035047;28;20095;-76
2022/08/29 10:45:58;;;;;;;7.13;2.55;;;;;;;21.49;52.15;102239.59;5033707;28;20022;-77
2022/08/29 10:48:30;;;;;;;12.85;2.80;;;;;;;21.56;53.04;102245.56;5034078;28;20105;-77
2022/08/29 10:51:21;;;;;;;10.27;2.40;;;;;;;22.41;51.45;102239.97;5031626;28;20033;-75
2022/08/29 10:53:56;;;;;;;7.78;2.83;;;;;;;22.83;48.85;102238.94;5031263;28;20176;-75
2022/08/29 10:56:34;;;;;;;5.70;2.47;;;;;;;23.15;48.32;102240.13;5032862;28;20033;-76
2022/08/29 10:59:17;;;;;;;7.95;2.60;;;;;;;23.25;49.06;102222.88;5032209;28;20554;-76
2022/08/29 11:01:53;;;;;;;19.70;2.92;;;;;;;22.47;48.44;102228.50;5033206;28;20029;-75
2022/08/29 11:04:41;;;;;;;8.90;2.13;;;;;;;22.53;48.37;102227.56;5032100;28;20376;-76
2022/08/29 11:07:41;;;;;;;4.43;2.40;;;;;;;23.30;46.89;102215.84;5033506;28;20025;-76
2022/08/29 11:10:16;;;;;;;4.25;2.20;;;;;;;23.39;46.33;102218.91;5027794;28;20045;-76
2022/08/29 11:12:51;;;;;;;5.47;2.15;;;;;;;24.13;45.97;102220.59;5031941;28;20033;-76
2022/08/29 11:15:16;;;;;;;5.65;2.40;;;;;;;23.90;45.87;102225.03;5033262;28;20106;-76
2022/08/29 11:17:45;;;;;;;4.70;2.30;;;;;;;23.50;45.48;102219.88;5031838;28;20029;-76
2022/08/29 11:20:22;;;;;;;5.93;2.30;;;;;;;22.56;48.13;102218.41;5033479;28;20366;-76
2022/08/29 11:22:59;;;;;;;7.75;2.40;;;;;;;23.50;47.18;102219.88;5032085;28;20108;-76
2022/08/29 11:25:25;;;;;;;9.73;2.53;;;;;;;23.13;47.69;102212.38;5033364;28;20027;-75
2022/08/29 11:28:10;;;;;;;5.18;2.38;;;;;;;23.13;47.96;102210.56;5033352;28;20067;-76
2022/08/29 11:31:10;;;;;;;8.23;2.40;;;;;;;22.65;48.75;102211.72;5031836;28;20057;-77
2022/08/29 11:33:50;;;;;;;8.43;2.80;;;;;;;23.08;48.69;102212.31;5031992;28;20021;-76
2022/08/29 11:36:59;;;;;;;5.40;2.42;;;;;;;23.23;47.14;102193.31;5033315;28;20108;-77
2022/08/29 11:39:30;;;;;;;8.70;2.42;;;;;;;22.42;48.87;102204.69;5033224;28;20092;-77